createdAt,value
2022-12-13T00:01:53.094Z,23.57
2022-12-13T00:04:23.603Z,24.23
2022-12-13T00:06:56.538Z,23.90
2022-12-13T00:09:24.189Z,26.07
2022-12-13T00:11:54.716Z,23.10
2022-12-13T00:14:22.202Z,22.20
2022-12-13T00:16:50.600Z,21.40
2022-12-13T00:19:20.080Z,20.13
2022-12-13T00:21:49.402Z,23.90
2022-12-13T00:24:19.030Z,22.97
2022-12-13T00:26:47.269Z,21.93
2022-12-13T00:29:15.338Z,18.87
2022-12-13T00:34:30.034Z,17.90
2022-12-13T00:36:59.024Z,19.00
2022-12-13T00:39:26.684Z,18.10
2022-12-13T00:41:53.886Z,17.63
2022-12-13T00:44:22.229Z,18.30
2022-12-13T00:46:53.978Z,19.40
2022-12-13T00:49:21.101Z,18.97
2022-12-13T00:51:49.548Z,18.87
2022-12-13T00:54:18.505Z,21.17
2022-12-13T00:56:51.223Z,17.60
2022-12-13T00:59:20.992Z,18.40
2022-12-13T01:01:49.598Z,14.57
2022-12-13T01:04:16.951Z,17.43
2022-12-13T01:06:50.136Z,19.67
2022-12-13T01:09:25.484Z,14.20
2022-12-13T01:12:02.570Z,13.00
2022-12-13T01:14:30.866Z,16.40
2022-12-13T01:16:58.183Z,17.53
2022-12-13T01:19:28.116Z,16.63
2022-12-13T01:22:00.183Z,17.50
2022-12-13T01:24:28.126Z,18.23
2022-12-13T01:26:57.226Z,16.90
2022-12-13T01:29:26.585Z,15.37
2022-12-13T01:31:54.181Z,15.93
2022-12-13T01:34:26.667Z,16.03
2022-12-13T01:36:57.983Z,16.17
2022-12-13T01:39:27.510Z,16.07
2022-12-13T01:41:59.538Z,16.80
2022-12-13T01:45:01.273Z,15.97
2022-12-13T01:56:03.049Z,13.90
2022-12-13T01:58:31.260Z,12.60
2022-12-13T02:01:01.008Z,13.37
2022-12-13T02:03:28.493Z,14.30
2022-12-13T02:05:55.566Z,13.63
2022-12-13T02:08:28.935Z,16.03
2022-12-13T02:10:58.400Z,15.37
2022-12-13T02:13:25.434Z,14.23
2022-12-13T02:16:22.201Z,16.70
2022-12-13T02:19:23.125Z,16.30
2022-12-13T02:22:23.957Z,15.47
2022-12-13T02:25:03.673Z,15.47
2022-12-13T02:28:30.647Z,16.83
2022-12-13T02:31:12.620Z,16.67
2022-12-13T02:34:22.573Z,17.07
2022-12-13T02:37:21.285Z,16.10
2022-12-13T02:39:58.982Z,16.37
2022-12-13T02:43:14.877Z,16.10
2022-12-13T02:45:51.546Z,16.20
2022-12-13T02:48:29.023Z,15.40
2022-12-13T02:50:58.911Z,16.83
2022-12-13T02:53:26.776Z,14.53
2022-12-13T02:55:53.690Z,14.73
2022-12-13T02:58:27.480Z,14.37
2022-12-13T03:01:28.783Z,13.50
2022-12-13T03:04:27.172Z,13.10
2022-12-13T03:07:24.271Z,14.10
2022-12-13T03:10:22.787Z,14.60
2022-12-13T03:13:25.067Z,15.20
2022-12-13T03:16:22.770Z,14.73
2022-12-13T03:18:55.279Z,14.73
2022-12-13T03:21:22.962Z,15.07
2022-12-13T03:23:50.211Z,17.03
2022-12-13T03:26:27.378Z,14.63
2022-12-13T03:28:55.429Z,15.00
2022-12-13T03:31:23.788Z,14.37
2022-12-13T03:33:50.666Z,15.53
2022-12-13T03:36:26.146Z,15.20
2022-12-13T03:38:56.086Z,15.53
2022-12-13T03:41:32.237Z,12.93
2022-12-13T03:44:05.437Z,13.80
2022-12-13T03:46:32.633Z,14.63
2022-12-13T03:48:59.783Z,12.90
2022-12-13T03:51:27.466Z,13.33
2022-12-13T03:53:54.269Z,14.47
2022-12-13T03:56:21.193Z,13.93
2022-12-13T03:58:48.107Z,14.80
2022-12-13T04:01:17.264Z,13.93
2022-12-13T04:03:46.994Z,14.17
2022-12-13T04:06:22.910Z,15.00
2022-12-13T04:08:52.429Z,15.50
2022-12-13T04:11:42.853Z,14.83
2022-12-13T04:14:12.168Z,14.63
2022-12-13T04:16:48.526Z,14.63
2022-12-13T04:19:15.365Z,14.30
2022-12-13T04:21:50.855Z,14.40
2022-12-13T04:24:17.775Z,14.20
2022-12-13T04:26:44.575Z,14.77
2022-12-13T04:29:11.410Z,17.53
2022-12-13T04:31:39.003Z,14.83
2022-12-13T04:34:08.436Z,15.83
2022-12-13T04:36:36.696Z,15.67
2022-12-13T04:39:22.047Z,13.43
2022-12-13T04:41:52.420Z,15.00
2022-12-13T04:44:27.600Z,13.87
2022-12-13T04:46:56.035Z,19.17
2022-12-13T04:49:30.051Z,18.93
2022-12-13T04:52:01.348Z,16.70
2022-12-13T04:54:36.149Z,13.50
2022-12-13T04:57:06.503Z,15.17
2022-12-13T04:59:33.647Z,13.60
2022-12-13T05:02:00.539Z,13.70
2022-12-13T05:04:32.384Z,12.23
2022-12-13T05:07:00.379Z,13.83
2022-12-13T05:09:27.184Z,11.87
2022-12-13T05:12:01.709Z,13.17
2022-12-13T05:14:33.181Z,13.20
2022-12-13T05:17:01.663Z,12.40
2022-12-13T05:19:31.257Z,13.03
2022-12-13T05:22:02.326Z,12.80
2022-12-13T05:24:31.426Z,10.93
2022-12-13T05:26:59.647Z,13.40
2022-12-13T05:29:27.806Z,13.00
2022-12-13T05:31:54.739Z,12.33
2022-12-13T05:34:21.696Z,12.53
2022-12-13T05:36:48.570Z,12.33
2022-12-13T05:39:27.722Z,12.07
2022-12-13T05:42:02.413Z,13.30
2022-12-13T05:44:31.864Z,14.13
2022-12-13T05:46:59.321Z,12.63
2022-12-13T05:49:29.269Z,13.00
2022-12-13T05:51:56.074Z,13.17
2022-12-13T05:54:23.087Z,15.90
2022-12-13T05:56:49.894Z,14.07
2022-12-13T05:59:16.837Z,14.47
2022-12-13T06:01:44.224Z,13.73
2022-12-13T06:04:12.914Z,14.53
2022-12-13T06:06:51.080Z,11.50
2022-12-13T06:09:19.192Z,12.43
2022-12-13T06:11:46.100Z,14.37
2022-12-13T06:14:21.900Z,13.90
2022-12-13T06:16:51.470Z,13.57
2022-12-13T06:19:19.376Z,13.67
2022-12-13T06:21:46.708Z,11.37
2022-12-13T06:24:22.016Z,12.97
2022-12-13T06:26:50.653Z,12.17
2022-12-13T06:29:24.167Z,13.23
2022-12-13T06:32:02.389Z,12.53
2022-12-13T06:34:36.814Z,11.60
2022-12-13T06:37:08.501Z,12.67
2022-12-13T06:39:35.623Z,12.67
2022-12-13T06:42:13.661Z,13.63
2022-12-13T06:45:04.848Z,13.10
2022-12-13T06:47:32.651Z,14.63
2022-12-13T06:50:05.256Z,15.63
2022-12-13T06:52:33.391Z,15.27
2022-12-13T06:55:00.272Z,13.97
2022-12-13T06:57:27.163Z,13.97
2022-12-13T06:59:53.990Z,13.90
2022-12-13T07:02:25.523Z,11.73
2022-12-13T07:04:53.662Z,12.77
2022-12-13T07:07:20.565Z,13.47
2022-12-13T07:09:47.624Z,14.27
2022-12-13T07:12:15.711Z,13.30
2022-12-13T07:14:44.203Z,14.00
2022-12-13T07:17:11.248Z,13.60
2022-12-13T07:19:39.817Z,14.83
2022-12-13T07:22:09.663Z,13.37
2022-12-13T07:24:43.955Z,13.57
2022-12-13T07:27:10.967Z,12.53
2022-12-13T07:29:39.835Z,12.50
2022-12-13T07:32:12.385Z,12.90
2022-12-13T07:34:40.387Z,9.90
2022-12-13T07:37:30.595Z,12.20
2022-12-13T07:40:03.019Z,12.10
2022-12-13T07:42:31.229Z,12.43
2022-12-13T07:44:58.105Z,10.93
2022-12-13T07:47:31.009Z,12.10
2022-12-13T07:49:58.630Z,10.93
2022-12-13T07:52:25.418Z,4.37
2022-12-13T07:54:52.207Z,9.50
2022-12-13T07:57:19.048Z,9.80
2022-12-13T07:59:45.989Z,10.87
2022-12-13T08:02:13.737Z,10.27
2022-12-13T08:04:43.963Z,10.77
2022-12-13T08:07:11.770Z,11.03
2022-12-13T08:09:38.761Z,8.53
2022-12-13T08:12:06.182Z,11.23
2022-12-13T08:14:33.309Z,8.57
2022-12-13T08:17:00.483Z,11.30
2022-12-13T08:19:27.647Z,7.43
2022-12-13T08:21:58.332Z,11.67
2022-12-13T08:24:28.664Z,8.17
2022-12-13T08:27:01.079Z,9.10
2022-12-13T08:29:34.276Z,9.87
2022-12-13T08:32:11.794Z,10.23
2022-12-13T08:34:39.471Z,10.60
2022-12-13T08:37:06.615Z,5.83
2022-12-13T08:39:38.601Z,11.50
2022-12-13T08:42:19.311Z,11.50
2022-12-13T08:44:52.685Z,11.47
2022-12-13T08:47:26.772Z,11.33
2022-12-13T08:50:02.611Z,9.13
2022-12-13T08:52:43.086Z,9.40
2022-12-13T08:55:15.254Z,9.70
2022-12-13T08:57:43.707Z,8.67
2022-12-13T09:00:16.355Z,9.10
2022-12-13T09:02:44.042Z,7.43
2022-12-13T09:05:33.255Z,6.70
2022-12-13T09:08:23.476Z,8.70
2022-12-13T09:11:10.810Z,6.40
2022-12-13T09:13:48.798Z,8.47
2022-12-13T09:16:24.834Z,9.07
2022-12-13T09:18:55.531Z,9.07
2022-12-13T09:21:31.803Z,7.87
2022-12-13T09:24:01.376Z,8.60
2022-12-13T09:26:29.154Z,9.03
2022-12-13T09:29:11.828Z,9.20
2022-12-13T09:31:40.620Z,5.50
2022-12-13T09:34:10.076Z,8.83
2022-12-13T09:36:37.895Z,10.17
2022-12-13T09:39:08.710Z,10.03
2022-12-13T09:41:45.717Z,9.50
2022-12-13T09:44:31.241Z,9.07
2022-12-13T09:47:13.350Z,5.23
2022-12-13T09:49:52.644Z,10.50
2022-12-13T09:52:24.806Z,11.03
2022-12-13T09:54:56.645Z,10.00
2022-12-13T09:57:33.971Z,8.20
2022-12-13T10:00:07.100Z,10.57
2022-12-13T10:02:49.625Z,10.10
2022-12-13T10:05:33.781Z,9.87
2022-12-13T10:08:23.108Z,11.33
2022-12-13T10:10:53.035Z,10.63
2022-12-13T10:13:21.981Z,10.13
2022-12-13T10:15:59.277Z,10.47
2022-12-13T10:18:38.568Z,11.33
2022-12-13T10:21:15.055Z,10.53
2022-12-13T10:24:22.627Z,10.10
2022-12-13T10:26:39.582Z,9.53
2022-12-13T10:29:10.236Z,11.10
2022-12-13T10:31:49.537Z,9.20
2022-12-13T10:34:29.768Z,10.70
2022-12-13T10:36:59.844Z,10.07
2022-12-13T10:39:44.170Z,11.07
2022-12-13T10:42:22.684Z,10.77
2022-12-13T10:45:23.366Z,10.80
2022-12-13T10:47:51.194Z,10.73
2022-12-13T10:50:29.702Z,7.83
2022-12-13T10:53:00.113Z,11.83
2022-12-13T10:55:40.445Z,9.83
2022-12-13T10:58:21.380Z,11.00
2022-12-13T11:00:49.384Z,9.87
2022-12-13T11:03:34.236Z,9.57
2022-12-13T11:06:15.752Z,10.80
2022-12-13T11:09:01.584Z,10.10
2022-12-13T11:11:40.770Z,7.80
2022-12-13T11:14:21.377Z,10.27
2022-12-13T11:17:08.796Z,5.70
2022-12-13T11:19:43.665Z,9.67
2022-12-13T11:22:30.265Z,9.30
2022-12-13T11:25:07.809Z,9.33
2022-12-13T11:28:26.313Z,11.93
2022-12-13T11:31:05.048Z,11.40
2022-12-13T11:34:21.739Z,6.17
2022-12-13T11:37:32.250Z,7.37
2022-12-13T11:40:05.659Z,10.70
2022-12-13T11:42:46.610Z,8.07
2022-12-13T11:45:22.347Z,9.33
2022-12-13T11:48:09.536Z,7.43
2022-12-13T11:50:50.148Z,10.00
2022-12-13T11:53:25.080Z,11.70
2022-12-13T11:56:04.325Z,8.83
2022-12-13T11:59:26.549Z,10.43
2022-12-13T12:02:05.078Z,3.40
2022-12-13T12:04:53.711Z,9.30
2022-12-13T12:08:05.377Z,5.60
2022-12-13T12:10:49.675Z,6.13
2022-12-13T12:13:29.627Z,5.23
2022-12-13T12:16:08.197Z,9.73
2022-12-13T12:18:35.278Z,9.47
2022-12-13T12:21:13.822Z,7.27
2022-12-13T12:23:53.386Z,8.93
2022-12-13T12:26:57.934Z,6.70
2022-12-13T12:29:53.362Z,3.17
2022-12-13T12:32:47.120Z,6.90
2022-12-13T12:35:55.744Z,4.63
2022-12-13T12:38:54.735Z,6.77
2022-12-13T12:41:45.066Z,4.87
2022-12-13T12:44:31.421Z,9.10
2022-12-13T12:50:42.746Z,8.70
2022-12-13T12:53:51.914Z,8.70
2022-12-13T12:56:33.594Z,7.93
2022-12-13T12:59:41.157Z,7.37
2022-12-13T13:03:01.541Z,8.77
2022-12-13T13:05:46.368Z,8.53
2022-12-13T13:08:59.164Z,7.53
2022-12-13T13:11:33.445Z,3.83
2022-12-13T13:14:42.692Z,4.97
2022-12-13T13:17:24.579Z,5.70
2022-12-13T13:20:24.722Z,5.33
2022-12-13T13:23:17.663Z,6.30
2022-12-13T13:26:16.076Z,6.80
2022-12-13T13:28:40.555Z,2.73
2022-12-13T13:31:10.193Z,2.67
2022-12-13T13:33:56.838Z,7.23
2022-12-13T13:36:42.049Z,5.97
2022-12-13T13:39:40.066Z,3.03
2022-12-13T13:43:04.032Z,5.63
2022-12-13T13:45:50.066Z,5.70
2022-12-13T13:48:55.648Z,6.27
2022-12-13T13:51:49.383Z,6.13
2022-12-13T13:55:29.774Z,7.03
2022-12-13T13:58:40.225Z,6.20
2022-12-13T14:01:51.961Z,3.17
2022-12-13T14:04:58.419Z,5.60
2022-12-13T14:07:56.037Z,4.97
2022-12-13T14:10:32.243Z,5.53
2022-12-13T14:14:22.498Z,6.33
2022-12-13T14:17:37.508Z,5.30
2022-12-13T14:20:38.215Z,6.50
2022-12-13T14:23:50.846Z,4.40
2022-12-13T14:26:42.718Z,7.10
2022-12-13T14:29:29.706Z,7.83
2022-12-13T14:33:03.586Z,7.43
2022-12-13T14:35:32.952Z,10.43
2022-12-13T14:38:06.875Z,9.03
2022-12-13T14:40:36.185Z,8.33
2022-12-13T14:43:03.832Z,8.37
2022-12-13T14:45:36.910Z,8.40
2022-12-13T14:48:28.492Z,7.93
2022-12-13T14:50:56.907Z,6.60
2022-12-13T14:53:29.634Z,7.47
2022-12-13T14:56:27.742Z,5.90
2022-12-13T14:59:03.296Z,6.77
2022-12-13T15:01:37.202Z,6.60
2022-12-13T15:04:27.222Z,7.50
2022-12-13T15:07:15.799Z,6.93
2022-12-13T15:09:45.535Z,6.63
2022-12-13T15:12:25.087Z,6.60
2022-12-13T15:15:07.420Z,6.63
2022-12-13T15:17:36.618Z,7.30
2022-12-13T15:20:23.215Z,6.53
2022-12-13T15:23:02.665Z,6.60
2022-12-13T15:25:30.112Z,6.33
2022-12-13T15:27:57.981Z,6.93
2022-12-13T15:30:30.249Z,7.27
2022-12-13T15:33:30.846Z,7.17
2022-12-13T15:36:15.535Z,9.07
2022-12-13T15:39:01.758Z,9.27
2022-12-13T15:41:33.337Z,7.50
2022-12-13T15:44:15.840Z,7.80
2022-12-13T15:46:47.662Z,8.37
2022-12-13T15:49:41.105Z,8.63
2022-12-13T15:52:16.764Z,9.37
2022-12-13T15:55:00.952Z,9.33
2022-12-13T15:57:59.319Z,9.47
2022-12-13T16:00:34.578Z,7.97
2022-12-13T16:03:12.475Z,7.97
2022-12-13T16:05:52.018Z,9.80
2022-12-13T16:08:37.485Z,10.87
2022-12-13T16:11:08.558Z,11.83
2022-12-13T16:13:37.890Z,9.93
2022-12-13T16:16:28.134Z,8.53
2022-12-13T16:18:59.284Z,8.03
2022-12-13T16:21:28.428Z,7.23
2022-12-13T16:23:55.231Z,8.90
2022-12-13T16:26:26.272Z,10.20
2022-12-13T16:28:55.266Z,12.57
2022-12-13T16:31:26.879Z,13.37
2022-12-13T16:33:53.777Z,12.23
2022-12-13T16:36:20.638Z,13.53
2022-12-13T16:38:47.639Z,12.50
2022-12-13T16:41:15.624Z,12.57
2022-12-13T16:44:02.210Z,12.50
2022-12-13T16:47:13.710Z,10.60
2022-12-13T16:49:30.615Z,10.80
2022-12-13T16:51:57.840Z,9.30
2022-12-13T16:54:26.337Z,9.63
2022-12-13T16:56:54.508Z,9.53
2022-12-13T16:59:25.179Z,7.17
2022-12-13T17:01:55.809Z,7.70
2022-12-13T17:04:27.388Z,7.57
2022-12-13T17:06:55.651Z,7.40
2022-12-13T17:09:26.641Z,8.10
2022-12-13T17:11:55.366Z,7.23
2022-12-13T17:14:22.804Z,6.17
2022-12-13T17:16:50.114Z,7.10
2022-12-13T17:19:21.473Z,5.40
2022-12-13T17:21:48.853Z,6.23
2022-12-13T17:24:16.493Z,3.80
2022-12-13T17:26:54.265Z,5.93
2022-12-13T17:29:24.454Z,6.13
2022-12-13T17:31:52.229Z,5.07
2022-12-13T17:34:19.235Z,6.10
2022-12-13T17:36:46.090Z,6.03
2022-12-13T17:39:12.934Z,5.07
2022-12-13T17:41:41.782Z,5.50
2022-12-13T17:44:08.965Z,4.80
2022-12-13T17:46:41.333Z,5.40
2022-12-13T17:49:21.270Z,6.57
2022-12-13T17:51:51.703Z,4.93
2022-12-13T17:54:19.544Z,7.13
2022-12-13T17:56:46.907Z,6.73
2022-12-13T17:59:16.204Z,7.07
2022-12-13T18:01:44.482Z,6.47
2022-12-13T18:04:17.717Z,5.97
2022-12-13T18:06:44.827Z,6.73
2022-12-13T18:09:13.129Z,7.00
2022-12-13T18:11:43.178Z,6.90
2022-12-13T18:14:10.091Z,8.00
2022-12-13T18:16:38.715Z,7.63
2022-12-13T18:19:12.949Z,7.73
2022-12-13T18:21:40.889Z,6.73
2022-12-13T18:24:10.772Z,8.73
2022-12-13T18:26:38.001Z,7.57
2022-12-13T18:29:06.613Z,7.50
2022-12-13T18:31:36.906Z,7.30
2022-12-13T18:34:05.830Z,7.57
2022-12-13T18:36:37.174Z,6.87
2022-12-13T18:39:04.527Z,7.43
2022-12-13T18:41:33.088Z,7.77
2022-12-13T18:44:08.054Z,7.17
2022-12-13T18:46:40.426Z,6.40
2022-12-13T18:49:10.435Z,6.20
2022-12-13T18:51:37.965Z,8.30
2022-12-13T18:54:05.476Z,9.27
2022-12-13T18:56:32.259Z,9.00
2022-12-13T18:58:59.726Z,8.70
2022-12-13T19:01:27.906Z,8.50
2022-12-13T19:03:54.916Z,7.90
2022-12-13T19:06:25.416Z,8.00
2022-12-13T19:08:56.486Z,7.60
2022-12-13T19:11:27.195Z,6.70
2022-12-13T19:13:55.069Z,7.63
2022-12-13T19:16:23.561Z,9.17
2022-12-13T19:18:50.545Z,7.70
2022-12-13T19:21:21.373Z,8.67
2022-12-13T19:23:55.839Z,8.73
2022-12-13T19:26:24.775Z,7.97
2022-12-13T19:28:51.604Z,8.73
2022-12-13T19:31:18.516Z,9.20
2022-12-13T19:33:45.430Z,9.27
2022-12-13T19:36:16.551Z,8.17
2022-12-13T19:38:44.356Z,7.67
2022-12-13T19:41:15.875Z,8.03
2022-12-13T19:43:52.074Z,7.60
2022-12-13T19:46:20.256Z,7.27
2022-12-13T19:48:49.651Z,7.37
2022-12-13T19:51:19.793Z,7.73
2022-12-13T19:53:50.839Z,8.30
2022-12-13T19:56:21.238Z,7.77
2022-12-13T19:58:51.188Z,6.83
2022-12-13T20:01:21.167Z,6.60
2022-12-13T20:03:48.137Z,6.60
2022-12-13T20:06:20.850Z,7.67
2022-12-13T20:08:48.430Z,8.27
2022-12-13T20:11:21.412Z,7.97
2022-12-13T20:13:58.383Z,7.93
2022-12-13T20:16:27.196Z,7.27
2022-12-13T20:18:56.953Z,7.27
2022-12-13T20:21:27.756Z,6.53
2022-12-13T20:23:55.404Z,6.83
2022-12-13T20:26:25.983Z,6.43
2022-12-13T20:28:53.099Z,7.27
2022-12-13T20:31:24.306Z,7.50
2022-12-13T20:34:02.295Z,7.93
2022-12-13T20:36:32.832Z,9.60
2022-12-13T20:39:01.968Z,9.57
2022-12-13T20:41:31.792Z,9.60
2022-12-13T20:44:01.229Z,10.33
2022-12-13T20:46:30.095Z,9.97
2022-12-13T20:49:00.356Z,9.20
2022-12-13T20:51:31.734Z,7.13
2022-12-13T20:53:59.217Z,6.90
2022-12-13T20:56:37.685Z,6.73
2022-12-13T20:59:08.021Z,6.70
2022-12-13T21:01:40.680Z,7.90
2022-12-13T21:04:09.978Z,7.53
2022-12-13T21:06:40.658Z,7.27
2022-12-13T21:09:09.758Z,6.87
2022-12-13T21:11:41.158Z,6.83
2022-12-13T21:14:22.709Z,7.23
2022-12-13T21:16:52.351Z,7.57
2022-12-13T21:19:27.837Z,7.73
2022-12-13T21:21:56.187Z,8.20
2022-12-13T21:24:26.145Z,10.37
2022-12-13T21:26:56.359Z,9.27
2022-12-13T21:29:23.632Z,10.07
2022-12-13T21:31:51.252Z,9.50
2022-12-13T21:34:19.468Z,8.57
2022-12-13T21:36:50.106Z,8.70
2022-12-13T21:39:20.916Z,8.20
2022-12-13T21:41:47.764Z,8.27
2022-12-13T21:44:17.081Z,8.43
2022-12-13T21:49:31.642Z,7.67
2022-12-13T21:51:58.555Z,9.00
2022-12-13T21:54:25.450Z,6.07
2022-12-13T21:57:10.776Z,8.73
2022-12-13T21:59:37.610Z,8.60
2022-12-13T22:02:15.875Z,8.37
2022-12-13T22:04:55.522Z,8.23
2022-12-13T22:07:30.673Z,7.87
2022-12-13T22:10:00.699Z,7.40
2022-12-13T22:12:41.730Z,6.33
2022-12-13T22:15:13.101Z,8.57
2022-12-13T22:17:41.055Z,6.93
2022-12-13T22:20:12.513Z,6.40
2022-12-13T22:22:41.963Z,6.83
2022-12-13T22:25:09.580Z,6.70
2022-12-13T22:27:36.591Z,7.87
2022-12-13T22:30:04.561Z,7.10
2022-12-13T22:32:32.291Z,6.50
2022-12-13T22:34:59.398Z,6.40
2022-12-13T22:37:27.471Z,7.03
2022-12-13T22:39:54.362Z,7.23
2022-12-13T22:42:24.359Z,6.87
2022-12-13T22:44:51.385Z,7.07
2022-12-13T22:47:20.949Z,6.97
2022-12-13T22:49:49.949Z,7.00
2022-12-13T22:52:18.215Z,7.20
2022-12-13T22:54:45.052Z,6.60
2022-12-13T22:57:12.005Z,7.10
2022-12-13T22:59:39.118Z,6.37
2022-12-13T23:02:06.124Z,6.67
2022-12-13T23:04:33.259Z,6.37
2022-12-13T23:07:00.167Z,6.40
2022-12-13T23:09:27.049Z,7.07
2022-12-13T23:12:12.823Z,6.53
2022-12-13T23:14:39.842Z,5.80
2022-12-13T23:17:07.195Z,6.43
2022-12-13T23:19:48.991Z,4.97
2022-12-13T23:22:25.763Z,4.17
2022-12-13T23:24:53.471Z,6.47
2022-12-13T23:27:22.796Z,6.07
2022-12-13T23:29:50.141Z,5.60
2022-12-13T23:32:17.355Z,6.30
2022-12-13T23:34:44.105Z,5.43
2022-12-13T23:37:13.865Z,5.70
2022-12-13T23:39:41.401Z,5.23
2022-12-13T23:42:14.101Z,5.43
2022-12-13T23:44:42.016Z,5.80
2022-12-13T23:47:09.059Z,5.80
2022-12-13T23:49:36.432Z,5.63
2022-12-13T23:52:04.957Z,5.73
2022-12-13T23:54:31.819Z,5.13
2022-12-13T23:56:58.716Z,4.80
2022-12-13T23:59:27.668Z,4.73
